Time;durP1;ratioP1;P1;durP2;ratioP2;P2;SDS_P1;SDS_P2;PMS_P1;PMS_P2;Temp;Humidity;BMP_temperature;BMP_pressure;BME280_temperature;BME280_humidity;BME280_pressure;Samples;Min_cycle;Max_cycle;Signal;HPM_P1;HPM_P2
2023/01/14 00:02:08;;;;;;;9.90;6.00;;;;;;;4.86;100.00;98591.30;221418;1279;22530;-73
2023/01/14 00:07:11;;;;;;;11.00;6.30;;;;;;;4.82;100.00;98598.54;221462;1273;22575;-74
2023/01/14 00:12:36;;;;;;;9.90;6.20;;;;;;;4.77;100.00;98588.70;221397;1279;22627;-72
2023/01/14 00:17:42;;;;;;;11.30;5.90;;;;;;;4.71;100.00;98588.59;221688;1279;22544;-74
2023/01/14 00:22:49;;;;;;;12.60;6.30;;;;;;;4.68;100.00;98588.73;221668;1275;24343;-72
2023/01/14 00:27:55;;;;;;;12.40;6.40;;;;;;;4.63;100.00;98590.06;221530;1279;23700;-73
2023/01/14 00:33:00;;;;;;;9.50;5.90;;;;;;;4.56;100.00;98590.43;221347;1279;22547;-73
2023/01/14 00:38:02;;;;;;;9.60;6.30;;;;;;;4.51;100.00;98604.67;221528;1276;22571;-74
2023/01/14 00:43:04;;;;;;;9.30;6.00;;;;;;;4.51;100.00;98611.09;221104;1279;22587;-74
2023/01/14 00:48:14;;;;;;;10.90;5.90;;;;;;;4.53;100.00;98617.89;221164;1279;22637;-73
2023/01/14 00:53:27;;;;;;;9.70;5.80;;;;;;;4.59;100.00;98617.95;221505;1279;22654;-73
2023/01/14 00:58:30;;;;;;;11.50;6.20;;;;;;;4.66;100.00;98618.33;221228;1280;25389;-74
2023/01/14 01:03:45;;;;;;;13.10;6.60;;;;;;;4.72;100.00;98623.15;221042;1280;22536;-73
2023/01/14 01:09:00;;;;;;;9.60;6.20;;;;;;;4.77;100.00;98620.38;221441;1272;22640;-73
2023/01/14 01:14:03;;;;;;;11.00;5.90;;;;;;;4.77;100.00;98618.31;221501;1279;23982;-74
2023/01/14 01:19:05;;;;;;;8.00;5.30;;;;;;;4.74;100.00;98620.45;221127;1280;22542;-72
2023/01/14 01:24:07;;;;;;;9.00;5.00;;;;;;;4.72;100.00;98623.09;221518;1280;23082;-74
2023/01/14 01:29:10;;;;;;;11.00;5.80;;;;;;;4.70;100.00;98627.05;221606;1279;22683;-74
2023/01/14 01:34:14;;;;;;;8.30;5.00;;;;;;;4.69;100.00;98630.82;221240;1279;25803;-73
2023/01/14 01:39:19;;;;;;;7.20;4.40;;;;;;;4.67;100.00;98628.26;221512;1279;22746;-73
2023/01/14 01:44:45;;;;;;;5.80;3.50;;;;;;;4.63;100.00;98628.33;221434;1279;25238;-74
2023/01/14 01:49:50;;;;;;;7.10;3.90;;;;;;;4.56;100.00;98630.76;221601;1276;23764;-73
2023/01/14 01:55:12;;;;;;;6.40;3.80;;;;;;;4.53;100.00;98641.34;221305;1279;22579;-73
2023/01/14 02:00:19;;;;;;;8.50;3.80;;;;;;;4.54;100.00;98647.77;221427;1279;25426;-73
2023/01/14 02:05:30;;;;;;;8.50;4.20;;;;;;;4.53;100.00;98643.20;221596;1279;22554;-73
2023/01/14 02:11:02;;;;;;;6.60;4.10;;;;;;;4.53;100.00;98650.69;221387;1277;23854;-73
2023/01/14 02:16:47;;;;;;;7.70;4.20;;;;;;;4.57;100.00;98656.09;221639;1276;22538;-74
2023/01/14 02:22:23;;;;;;;7.80;4.40;;;;;;;4.60;100.00;98656.01;221379;1279;22554;-73
2023/01/14 02:27:57;;;;;;;7.40;4.50;;;;;;;4.64;100.00;98661.46;221527;1279;22547;-74
2023/01/14 02:33:19;;;;;;;6.90;4.60;;;;;;;4.63;100.00;98665.32;221573;1278;24270;-74
2023/01/14 02:38:46;;;;;;;4.90;3.80;;;;;;;4.62;100.00;98674.66;221522;1278;22529;-73
2023/01/14 02:44:11;;;;;;;6.00;3.70;;;;;;;4.58;100.00;98684.81;221192;1279;25328;-73
2023/01/14 02:49:23;;;;;;;7.60;4.10;;;;;;;4.53;100.00;98690.05;221347;1279;22564;-73
2023/01/14 02:54:28;;;;;;;6.00;4.00;;;;;;;4.44;100.00;98690.02;221620;1279;22644;-74
2023/01/14 03:00:21;;;;;;;4.90;3.50;;;;;;;4.39;100.00;98692.36;221582;1279;22960;-73
2023/01/14 03:05:45;;;;;;;6.90;3.40;;;;;;;4.41;100.00;98692.33;220779;1277;24247;-73
2023/01/14 03:11:03;;;;;;;6.70;4.00;;;;;;;4.39;100.00;98690.45;221492;1279;22533;-73
2023/01/14 03:16:33;;;;;;;5.70;3.60;;;;;;;4.32;100.00;98695.14;221651;1273;25300;-73
2023/01/14 03:21:41;;;;;;;6.10;4.10;;;;;;;4.20;100.00;98696.45;221313;1278;22527;-73
2023/01/14 03:26:49;;;;;;;7.20;3.30;;;;;;;4.14;100.00;98700.20;221238;1279;22935;-74
2023/01/14 03:32:17;;;;;;;6.40;3.70;;;;;;;4.12;100.00;98711.36;221615;1275;22560;-75
2023/01/14 03:37:27;;;;;;;4.40;3.10;;;;;;;4.12;100.00;98708.65;221454;1273;23921;-73
2023/01/14 03:42:36;;;;;;;3.70;3.00;;;;;;;4.10;100.00;98707.31;221330;1263;23348;-73
2023/01/14 03:47:39;;;;;;;5.40;3.40;;;;;;;4.07;100.00;98714.33;221580;1273;22504;-73
2023/01/14 03:52:54;;;;;;;6.00;3.40;;;;;;;4.06;100.00;98721.96;221442;1276;22552;-73
2023/01/14 03:58:07;;;;;;;6.10;3.10;;;;;;;4.05;100.00;98730.05;221539;1279;24479;-73
2023/01/14 04:03:12;;;;;;;7.20;3.50;;;;;;;4.04;100.00;98729.98;221324;1279;22647;-74
2023/01/14 04:08:20;;;;;;;4.40;2.90;;;;;;;4.08;100.00;98740.64;221411;1279;22550;-73
2023/01/14 04:18:49;;;;;;;5.00;3.00;;;;;;;4.18;100.00;98745.74;222213;1279;26518;-74
2023/01/14 04:23:57;;;;;;;4.30;2.80;;;;;;;4.21;100.00;98755.59;221456;1279;24841;-74
2023/01/14 04:29:02;;;;;;;6.30;3.80;;;;;;;4.21;100.00;98754.36;221537;1275;24260;-73
2023/01/14 04:34:07;;;;;;;8.90;3.50;;;;;;;4.19;100.00;98757.48;221576;1279;25301;-73
2023/01/14 04:39:11;;;;;;;6.50;3.70;;;;;;;4.13;100.00;98762.50;221492;1279;24188;-73
2023/01/14 04:44:13;;;;;;;7.00;3.30;;;;;;;4.05;99.98;98763.70;221566;1272;25237;-73
2023/01/14 04:49:16;;;;;;;6.30;3.60;;;;;;;3.96;99.96;98769.32;221647;1277;25246;-73
2023/01/14 04:54:19;;;;;;;7.10;3.60;;;;;;;3.86;99.98;98771.20;221516;1275;22661;-72
2023/01/14 04:59:33;;;;;;;8.10;3.90;;;;;;;3.75;99.99;98780.80;221432;1279;22597;-74
2023/01/14 05:04:35;;;;;;;9.30;4.10;;;;;;;3.67;100.00;98783.76;221368;1278;22535;-73
2023/01/14 05:09:55;;;;;;;7.70;4.00;;;;;;;3.64;100.00;98783.17;221204;1279;25346;-73
2023/01/14 05:14:57;;;;;;;7.30;4.00;;;;;;;3.63;100.00;98788.85;221465;1275;25157;-73
2023/01/14 05:20:03;;;;;;;5.00;3.50;;;;;;;3.63;100.00;98795.63;221351;1278;26383;-72
2023/01/14 05:25:06;;;;;;;5.60;2.90;;;;;;;3.66;100.00;98808.02;221567;1278;24377;-73
2023/01/14 05:30:09;;;;;;;7.10;3.60;;;;;;;3.67;100.00;98811.64;221527;1275;22886;-73
2023/01/14 05:35:16;;;;;;;5.50;3.20;;;;;;;3.71;100.00;98819.44;221529;1277;22750;-73
2023/01/14 05:40:19;;;;;;;6.60;3.20;;;;;;;3.76;100.00;98822.27;221484;1278;22585;-72
2023/01/14 05:45:49;;;;;;;7.70;3.00;;;;;;;3.81;100.00;98827.14;221388;1263;22544;-73
2023/01/14 05:50:56;;;;;;;6.00;2.80;;;;;;;3.86;100.00;98833.59;221461;1275;25549;-73
2023/01/14 05:56:00;;;;;;;5.60;2.70;;;;;;;3.91;100.00;98834.15;221582;1275;22622;-73
2023/01/14 06:06:38;;;;;;;4.50;2.40;;;;;;;4.02;100.00;98836.70;221599;1274;24405;-73
2023/01/14 06:11:40;;;;;;;5.70;2.70;;;;;;;4.09;99.99;98847.33;221441;1278;23559;-73
2023/01/14 06:16:43;;;;;;;6.60;2.70;;;;;;;4.14;100.00;98850.42;221496;1279;22598;-73
2023/01/14 06:21:48;;;;;;;5.50;2.80;;;;;;;4.17;99.90;98841.98;221370;1279;22554;-74
2023/01/14 06:26:54;;;;;;;6.50;2.30;;;;;;;4.19;99.69;98845.55;221428;1275;22553;-74
2023/01/14 06:31:56;;;;;;;6.80;2.20;;;;;;;4.20;99.92;98846.38;221475;1279;23770;-73
2023/01/14 06:36:59;;;;;;;4.90;2.40;;;;;;;4.16;99.77;98846.11;221397;1279;24874;-72
2023/01/14 06:42:04;;;;;;;5.60;2.30;;;;;;;4.10;99.50;98849.83;221641;1265;25353;-73
2023/01/14 06:47:38;;;;;;;5.40;2.00;;;;;;;4.02;99.33;98854.42;221598;1279;25415;-72
2023/01/14 06:52:40;;;;;;;4.80;2.30;;;;;;;3.94;99.38;98857.61;221676;1275;22552;-73
2023/01/14 06:57:45;;;;;;;4.90;2.10;;;;;;;3.90;99.62;98866.58;221438;1279;24264;-73
2023/01/14 07:03:16;;;;;;;4.00;1.70;;;;;;;3.92;99.58;98870.98;221328;1279;22541;-72
2023/01/14 07:08:20;;;;;;;4.10;2.10;;;;;;;3.95;99.52;98871.78;221447;1279;22602;-74
2023/01/14 07:13:24;;;;;;;5.70;2.00;;;;;;;3.97;99.38;98867.31;221348;1278;25351;-73
2023/01/14 07:18:26;;;;;;;4.00;2.30;;;;;;;4.00;99.29;98874.10;221375;1278;22532;-73
2023/01/14 07:23:29;;;;;;;7.10;3.00;;;;;;;4.03;99.47;98874.45;221587;1279;23016;-73
2023/01/14 07:28:34;;;;;;;7.50;2.60;;;;;;;4.08;99.31;98872.08;221592;1279;24397;-73
2023/01/14 07:33:37;;;;;;;7.70;3.50;;;;;;;4.14;99.52;98875.30;221559;1272;22862;-71
2023/01/14 07:38:39;;;;;;;6.70;2.50;;;;;;;4.22;99.68;98881.13;221538;1276;23761;-74
2023/01/14 07:43:42;;;;;;;6.20;2.90;;;;;;;4.30;99.27;98889.15;221362;1278;25310;-72
2023/01/14 07:48:45;;;;;;;6.50;2.90;;;;;;;4.39;99.34;98888.20;221194;1275;22540;-73
2023/01/14 07:53:48;;;;;;;11.30;3.10;;;;;;;4.48;99.10;98887.27;221591;1275;24224;-74
2023/01/14 07:58:57;;;;;;;8.10;3.30;;;;;;;4.57;99.22;98897.67;221728;1272;25456;-73
2023/01/14 08:03:59;;;;;;;7.80;3.70;;;;;;;4.67;99.15;98902.53;221908;1269;305245;-72
2023/01/14 08:09:05;;;;;;;10.10;5.10;;;;;;;4.75;98.99;98912.98;221923;1272;25231;-74
2023/01/14 08:14:10;;;;;;;20.00;8.40;;;;;;;4.87;98.99;98926.14;221757;1272;24244;-73
2023/01/14 08:19:15;;;;;;;15.70;7.70;;;;;;;4.98;99.00;98930.41;221914;1269;22524;-74
2023/01/14 08:24:17;;;;;;;12.20;7.30;;;;;;;5.01;98.45;98934.09;221796;1272;26492;-74
2023/01/14 08:29:23;;;;;;;14.70;8.10;;;;;;;5.05;98.28;98936.42;221544;1261;24811;-74
2023/01/14 08:34:46;;;;;;;15.00;8.20;;;;;;;5.10;98.31;98928.91;221801;1272;25271;-74
2023/01/14 08:39:55;;;;;;;16.10;7.10;;;;;;;5.07;98.11;98929.13;221872;1279;22551;-74
2023/01/14 08:44:57;;;;;;;14.30;8.00;;;;;;;5.06;97.82;98937.41;221759;1279;22557;-74
2023/01/14 08:50:00;;;;;;;15.10;8.40;;;;;;;5.25;98.79;98944.30;221773;1275;22928;-74
2023/01/14 08:55:06;;;;;;;15.70;8.50;;;;;;;5.81;99.64;98960.80;221782;1267;22508;-74
2023/01/14 09:00:09;;;;;;;16.30;8.40;;;;;;;5.92;98.08;98964.84;221797;1276;24112;-74
2023/01/14 09:05:21;;;;;;;13.50;6.20;;;;;;;5.93;97.47;98960.39;222133;1275;25367;-74
2023/01/14 09:21:54;;;;;;;6.70;3.60;;;;;;;6.12;96.42;98966.85;221803;1278;24278;-74
2023/01/14 09:26:57;;;;;;;8.10;3.90;;;;;;;6.22;95.63;98971.29;221748;1272;22655;-74
2023/01/14 09:32:03;;;;;;;8.70;3.90;;;;;;;6.29;95.12;98970.59;221717;1279;24254;-74
2023/01/14 09:37:09;;;;;;;9.60;3.90;;;;;;;6.39;95.06;98967.09;221747;1279;22498;-75
2023/01/14 09:42:38;;;;;;;4.80;2.60;;;;;;;6.46;94.17;98965.91;221942;1274;22548;-73
2023/01/14 09:47:51;;;;;;;7.20;2.90;;;;;;;6.50;92.76;98958.86;221853;1271;22550;-75
2023/01/14 09:53:34;;;;;;;5.80;3.10;;;;;;;6.60;93.61;98960.41;221809;1273;22540;-75
2023/01/14 09:58:54;;;;;;;5.10;2.70;;;;;;;6.75;93.07;98958.05;221806;1262;25325;-73
2023/01/14 10:04:39;;;;;;;8.30;3.20;;;;;;;6.85;92.90;98960.98;222224;1272;23927;-73
2023/01/14 10:09:50;;;;;;;7.60;3.10;;;;;;;7.04;92.98;98951.58;222019;1278;22544;-73
2023/01/14 10:15:27;;;;;;;6.50;3.80;;;;;;;7.23;92.53;98942.11;221902;1278;22550;-73
2023/01/14 10:20:37;;;;;;;7.80;3.60;;;;;;;7.38;92.18;98940.45;222084;1275;22983;-73
2023/01/14 10:25:47;;;;;;;6.80;3.90;;;;;;;7.49;92.19;98935.89;222175;1272;22536;-73
2023/01/14 10:30:51;;;;;;;7.00;3.00;;;;;;;7.62;91.72;98933.29;222274;1256;22564;-74
2023/01/14 10:36:01;;;;;;;6.80;2.90;;;;;;;7.77;91.60;98926.91;222001;1260;22556;-73
2023/01/14 10:41:06;;;;;;;5.10;2.60;;;;;;;7.90;91.22;98925.27;221805;1275;22674;-73
2023/01/14 10:46:26;;;;;;;6.40;2.20;;;;;;;7.99;90.51;98914.60;221697;1280;22702;-73
2023/01/14 10:51:33;;;;;;;5.70;2.30;;;;;;;8.05;89.96;98913.90;221717;1272;22539;-73
2023/01/14 10:56:36;;;;;;;3.90;2.10;;;;;;;8.08;89.18;98913.04;222190;1266;22685;-74
2023/01/14 11:01:53;;;;;;;6.00;2.50;;;;;;;8.11;89.24;98910.64;221906;1272;22543;-73
2023/01/14 11:07:09;;;;;;;4.60;2.20;;;;;;;8.19;89.02;98918.30;221908;1258;22540;-73
2023/01/14 11:12:32;;;;;;;6.50;2.40;;;;;;;8.26;87.70;98928.70;222020;1267;23393;-73
2023/01/14 11:17:35;;;;;;;6.70;2.80;;;;;;;8.31;87.12;98918.45;221821;1275;22655;-73
2023/01/14 11:22:38;;;;;;;4.80;2.40;;;;;;;8.34;87.03;98903.71;221973;1272;24114;-74
2023/01/14 11:27:50;;;;;;;5.30;1.80;;;;;;;8.39;87.08;98905.09;221617;1275;22573;-73
2023/01/14 11:32:55;;;;;;;3.40;1.70;;;;;;;8.45;86.35;98903.50;221856;1272;22536;-73
2023/01/14 11:37:58;;;;;;;5.10;2.10;;;;;;;8.46;85.96;98892.50;221961;1275;22684;-73
2023/01/14 11:43:09;;;;;;;3.60;1.90;;;;;;;8.48;84.99;98889.73;221863;1276;24226;-72
2023/01/14 11:48:29;;;;;;;5.50;2.30;;;;;;;8.51;85.25;98891.73;222010;1275;22557;-75
2023/01/14 11:53:46;;;;;;;3.50;2.00;;;;;;;8.65;85.75;98885.23;222301;1273;25327;-75
2023/01/14 11:58:49;;;;;;;3.70;1.60;;;;;;;8.90;85.58;98870.27;221912;1272;22621;-73
2023/01/14 12:04:18;;;;;;;5.40;1.80;;;;;;;9.00;84.52;98865.42;221608;1272;25424;-73
2023/01/14 12:09:26;;;;;;;2.80;1.90;;;;;;;8.81;82.71;98873.90;221533;1272;22599;-75
2023/01/14 12:20:13;;;;;;;6.00;2.30;;;;;;;8.69;82.95;98858.14;221555;1278;25552;-74
2023/01/14 12:25:40;;;;;;;6.40;2.40;;;;;;;8.74;83.72;98838.89;221349;1278;24725;-74
2023/01/14 12:30:53;;;;;;;7.40;2.40;;;;;;;8.82;83.94;98824.80;221512;1277;22537;-73
2023/01/14 12:36:20;;;;;;;7.30;3.10;;;;;;;8.81;83.87;98819.04;221361;1278;24379;-74
2023/01/14 12:47:02;;;;;;;7.10;2.80;;;;;;;8.79;84.49;98806.60;221418;1279;24699;-74
2023/01/14 12:52:08;;;;;;;8.30;2.30;;;;;;;8.69;84.40;98798.73;221266;1279;22540;-74
2023/01/14 12:57:20;;;;;;;4.70;2.70;;;;;;;8.62;84.03;98796.54;221567;1275;22491;-73
2023/01/14 13:02:37;;;;;;;7.60;2.70;;;;;;;8.52;83.56;98807.91;221589;1275;25323;-75
2023/01/14 13:08:01;;;;;;;7.40;2.70;;;;;;;8.48;83.48;98812.14;221519;1272;24400;-72
2023/01/14 13:13:16;;;;;;;5.70;2.90;;;;;;;8.41;83.56;98817.36;221281;1275;22679;-74
2023/01/14 13:18:34;;;;;;;9.70;2.60;;;;;;;8.31;83.68;98817.92;221503;1279;22533;-72
2023/01/14 13:23:36;;;;;;;4.60;2.00;;;;;;;8.26;83.72;98822.11;221416;1278;24218;-73
2023/01/14 13:29:15;;;;;;;6.80;3.20;;;;;;;8.18;83.36;98826.14;221551;1278;22549;-74
2023/01/14 13:34:22;;;;;;;3.90;2.10;;;;;;;7.97;83.31;98820.42;221322;1279;22679;-74
2023/01/14 13:39:30;;;;;;;4.50;2.20;;;;;;;7.83;83.94;98809.29;221463;1279;22538;-74
2023/01/14 13:44:41;;;;;;;4.70;2.60;;;;;;;7.71;83.97;98802.91;221335;1279;24229;-75
2023/01/14 13:50:07;;;;;;;6.60;2.20;;;;;;;7.56;83.76;98809.48;221457;1279;23890;-74
2023/01/14 13:55:26;;;;;;;3.80;2.00;;;;;;;7.46;84.10;98808.46;221478;1262;24240;-72
2023/01/14 14:00:37;;;;;;;6.20;2.70;;;;;;;7.39;84.01;98805.38;221485;1275;24371;-74
2023/01/14 14:05:41;;;;;;;5.90;2.30;;;;;;;7.34;84.50;98794.51;221572;1278;22631;-73
2023/01/14 14:11:11;;;;;;;7.10;2.40;;;;;;;7.26;84.44;98796.58;221595;1279;22533;-74
2023/01/14 14:16:28;;;;;;;5.80;2.40;;;;;;;7.12;84.74;98793.05;221201;1279;25478;-74
2023/01/14 14:21:57;;;;;;;6.70;2.70;;;;;;;6.97;85.02;98790.20;221597;1275;24393;-75
2023/01/14 14:27:06;;;;;;;5.90;2.30;;;;;;;6.79;85.01;98785.64;221359;1279;22536;-75
2023/01/14 14:32:17;;;;;;;9.30;2.90;;;;;;;6.63;85.17;98776.02;221907;1278;25301;-73
2023/01/14 14:37:33;;;;;;;5.90;2.30;;;;;;;6.50;85.60;98779.27;221414;1262;24222;-74
2023/01/14 14:42:41;;;;;;;6.70;3.30;;;;;;;6.34;85.82;98781.92;221616;1278;23774;-73
2023/01/14 14:47:46;;;;;;;10.50;3.70;;;;;;;6.18;85.89;98774.45;221431;1278;22669;-74
2023/01/14 14:52:48;;;;;;;12.10;3.80;;;;;;;6.04;86.41;98770.09;221508;1275;22676;-73
2023/01/14 14:57:51;;;;;;;8.70;2.90;;;;;;;5.89;86.37;98763.65;221460;1279;22560;-74
2023/01/14 15:02:56;;;;;;;9.90;3.90;;;;;;;5.73;86.61;98764.25;221693;1275;24241;-74
2023/01/14 15:08:08;;;;;;;9.60;3.80;;;;;;;5.59;86.74;98767.19;221636;1278;24339;-74
2023/01/14 15:13:36;;;;;;;6.20;3.50;;;;;;;5.45;86.72;98775.07;221342;1279;25337;-74
2023/01/14 15:18:41;;;;;;;10.00;3.40;;;;;;;5.31;87.01;98761.67;221412;1279;22536;-74
2023/01/14 15:23:54;;;;;;;7.40;3.70;;;;;;;5.15;87.30;98760.52;221375;1279;22579;-74
2023/01/14 15:28:59;;;;;;;9.10;5.30;;;;;;;5.00;87.47;98764.39;221583;1279;22551;-74
2023/01/14 15:34:16;;;;;;;12.10;5.00;;;;;;;4.85;87.63;98758.83;221601;1278;25388;-74
2023/01/14 15:39:18;;;;;;;9.20;4.70;;;;;;;4.71;87.84;98748.02;221609;1275;22559;-74
2023/01/14 15:44:34;;;;;;;14.30;5.40;;;;;;;4.57;87.77;98729.21;221398;1278;24236;-73
2023/01/14 15:49:38;;;;;;;13.30;6.60;;;;;;;4.45;88.19;98726.15;221417;1265;23798;-73
2023/01/14 15:54:43;;;;;;;18.20;6.50;;;;;;;4.35;88.45;98715.02;221536;1279;25352;-74
2023/01/14 16:00:14;;;;;;;19.50;7.60;;;;;;;4.24;88.40;98705.77;221497;1278;24277;-73
2023/01/14 16:05:38;;;;;;;17.50;7.40;;;;;;;4.13;88.40;98703.48;221458;1276;24219;-74
2023/01/14 16:10:41;;;;;;;16.80;7.50;;;;;;;4.02;88.76;98703.83;221301;1279;22547;-73
2023/01/14 16:15:51;;;;;;;13.10;6.10;;;;;;;3.91;88.94;98697.21;221303;1279;24857;-74
2023/01/14 16:20:56;;;;;;;16.20;7.70;;;;;;;3.82;88.96;98692.96;221400;1279;22614;-73
2023/01/14 16:26:02;;;;;;;21.40;8.40;;;;;;;3.74;89.24;98689.34;221504;1279;22561;-73
2023/01/14 16:31:05;;;;;;;17.60;7.50;;;;;;;3.71;89.50;98699.30;221472;1279;24260;-73
2023/01/14 16:36:15;;;;;;;18.60;7.70;;;;;;;3.70;89.82;98689.32;221417;1278;22568;-73
2023/01/14 16:41:17;;;;;;;;;;;;;;;3.66;89.62;98674.17;221511;1275;22534;-73
2023/01/14 16:46:20;;;;;;;14.70;6.50;;;;;;;3.60;89.56;98663.51;221235;1279;22719;-73
2023/01/14 16:51:24;;;;;;;18.40;7.50;;;;;;;3.56;89.81;98655.03;221376;1278;25338;-74
2023/01/14 16:56:26;;;;;;;22.10;8.60;;;;;;;3.56;89.96;98646.17;221397;1278;22537;-74
2023/01/14 17:01:29;;;;;;;22.50;8.50;;;;;;;3.54;89.92;98639.83;221437;1257;22482;-73
2023/01/14 17:06:35;;;;;;;21.40;7.90;;;;;;;3.54;89.93;98646.22;221373;1279;22540;-73
2023/01/14 17:17:02;;;;;;;17.80;7.80;;;;;;;3.56;90.26;98639.82;221414;1279;22672;-74
2023/01/14 17:22:04;;;;;;;18.40;7.90;;;;;;;3.55;90.45;98635.95;221421;1280;24189;-73
2023/01/14 17:27:07;;;;;;;15.10;7.90;;;;;;;3.56;90.57;98635.21;221348;1279;22604;-73
2023/01/14 17:32:09;;;;;;;13.90;7.10;;;;;;;3.56;90.48;98632.20;221350;1275;22561;-72
2023/01/14 17:37:12;;;;;;;18.50;7.70;;;;;;;3.56;90.71;98630.71;221173;1276;22641;-74
2023/01/14 17:42:16;;;;;;;16.50;7.70;;;;;;;3.56;90.63;98629.01;221158;1279;22586;-73
2023/01/14 17:47:23;;;;;;;15.60;7.10;;;;;;;3.56;90.83;98618.48;221196;1278;22546;-73
2023/01/14 17:52:25;;;;;;;17.70;7.50;;;;;;;3.58;90.80;98617.48;221203;1280;22549;-73
2023/01/14 17:57:29;;;;;;;14.90;7.00;;;;;;;3.61;90.75;98609.89;221239;1280;23761;-74
2023/01/14 18:02:31;;;;;;;17.80;7.70;;;;;;;3.63;91.13;98595.45;221133;1276;22592;-74
2023/01/14 18:07:35;;;;;;;16.40;7.30;;;;;;;3.66;91.18;98581.67;221250;1280;22581;-73
2023/01/14 18:12:38;;;;;;;16.10;7.30;;;;;;;3.70;91.11;98580.17;221206;1274;25847;-73
2023/01/14 18:17:41;;;;;;;15.60;7.40;;;;;;;3.73;91.07;98570.98;221261;1279;24513;-73
2023/01/14 18:22:46;;;;;;;13.50;6.60;;;;;;;3.74;91.24;98571.21;221036;1280;22543;-73
2023/01/14 18:27:55;;;;;;;14.30;6.90;;;;;;;3.75;91.07;98568.52;221275;1280;22542;-73
2023/01/14 18:33:06;;;;;;;14.00;7.10;;;;;;;3.76;91.08;98555.23;221340;1280;22536;-73
2023/01/14 18:38:08;;;;;;;18.60;6.70;;;;;;;3.75;91.11;98541.70;221210;1280;25358;-73
2023/01/14 18:43:11;;;;;;;15.00;6.30;;;;;;;3.75;91.22;98536.30;221331;1280;24408;-74
2023/01/14 18:48:13;;;;;;;14.00;6.70;;;;;;;3.75;91.17;98530.21;221238;1278;22552;-74
2023/01/14 18:53:16;;;;;;;19.70;7.40;;;;;;;3.75;91.13;98516.76;221407;1278;24405;-74
2023/01/14 18:58:18;;;;;;;11.90;6.00;;;;;;;3.73;91.08;98508.62;220840;1280;22598;-74
2023/01/14 19:03:21;;;;;;;15.50;6.50;;;;;;;3.72;91.13;98496.58;221239;1280;22548;-74
2023/01/14 19:08:24;;;;;;;13.10;6.20;;;;;;;3.71;91.19;98490.02;221012;1280;22594;-74
2023/01/14 19:13:27;;;;;;;13.30;6.40;;;;;;;3.70;91.16;98485.54;220949;1280;24237;-74
2023/01/14 19:18:29;;;;;;;13.80;6.50;;;;;;;3.67;91.24;98489.11;221205;1281;22892;-72
2023/01/14 19:23:33;;;;;;;14.70;6.70;;;;;;;3.65;91.24;98484.53;221295;1280;22536;-74
2023/01/14 19:28:35;;;;;;;13.70;6.00;;;;;;;3.63;91.44;98466.65;221166;1280;22585;-73
2023/01/14 19:33:38;;;;;;;18.20;7.10;;;;;;;3.62;91.25;98461.93;221211;1280;25355;-74
2023/01/14 19:38:43;;;;;;;13.50;6.70;;;;;;;3.62;91.34;98456.64;221101;1280;25372;-73
2023/01/14 19:43:48;;;;;;;18.90;7.10;;;;;;;3.61;91.29;98445.04;221478;1280;25431;-73
2023/01/14 19:48:53;;;;;;;17.60;7.30;;;;;;;3.61;91.25;98430.09;221398;1277;24243;-72
2023/01/14 19:53:56;;;;;;;22.90;8.20;;;;;;;3.59;91.39;98409.52;221360;1280;22586;-74
2023/01/14 19:58:59;;;;;;;18.50;8.80;;;;;;;3.59;91.50;98394.36;220991;1279;22539;-73
2023/01/14 20:04:12;;;;;;;20.10;8.20;;;;;;;3.56;91.43;98401.51;221023;1280;196954;-73
2023/01/14 20:09:15;;;;;;;19.40;8.10;;;;;;;3.54;91.37;98399.04;221316;1275;25279;-74
2023/01/14 20:14:17;;;;;;;19.00;8.40;;;;;;;3.52;91.51;98401.40;221356;1279;24255;-74
2023/01/14 20:19:20;;;;;;;18.00;7.70;;;;;;;3.50;91.64;98400.80;221434;1279;25313;-73
2023/01/14 20:24:24;;;;;;;20.40;7.90;;;;;;;3.48;91.62;98397.97;221406;1279;25290;-74
2023/01/14 20:29:27;;;;;;;19.90;8.40;;;;;;;3.46;91.65;98387.90;221565;1279;22608;-74
2023/01/14 20:34:32;;;;;;;21.50;8.10;;;;;;;3.45;91.55;98377.45;221518;1279;22553;-73
2023/01/14 20:39:34;;;;;;;17.40;7.30;;;;;;;3.43;91.71;98366.04;221513;1279;23803;-73
2023/01/14 20:44:55;;;;;;;22.60;9.10;;;;;;;3.43;91.55;98363.98;221493;1279;25392;-74
2023/01/14 20:49:57;;;;;;;17.90;6.70;;;;;;;3.42;91.49;98347.52;221381;1279;23244;-73
2023/01/14 20:55:00;;;;;;;14.70;5.60;;;;;;;3.41;91.64;98347.33;221450;1279;25274;-72
2023/01/14 21:00:06;;;;;;;13.80;6.10;;;;;;;3.42;91.67;98343.11;221322;1279;25453;-72
2023/01/14 21:05:09;;;;;;;14.60;5.70;;;;;;;3.42;91.44;98338.45;221600;1279;22619;-73
2023/01/14 21:10:11;;;;;;;14.40;5.20;;;;;;;3.44;91.62;98333.42;221582;1279;24464;-74
2023/01/14 21:26:01;;;;;;;13.70;5.70;;;;;;;3.51;91.57;98314.32;221341;1279;25169;-74
2023/01/14 21:31:04;;;;;;;10.00;5.00;;;;;;;3.53;91.33;98317.09;221237;1279;25099;-75
2023/01/14 21:36:10;;;;;;;12.60;4.60;;;;;;;3.55;91.59;98303.60;221447;1273;22564;-74
2023/01/14 21:46:36;;;;;;;12.10;3.70;;;;;;;3.57;91.58;98282.31;221486;1277;24355;-72
2023/01/14 21:51:39;;;;;;;9.00;3.80;;;;;;;3.60;91.53;98266.70;221427;1279;24200;-73
2023/01/14 21:56:41;;;;;;;9.70;4.10;;;;;;;3.64;91.36;98250.80;221321;1279;24359;-73
2023/01/14 22:01:43;;;;;;;7.10;3.50;;;;;;;3.68;91.35;98249.76;221324;1279;23989;-73
2023/01/14 22:06:50;;;;;;;9.90;4.10;;;;;;;3.71;91.12;98243.84;221503;1279;22536;-73
2023/01/14 22:11:54;;;;;;;9.20;4.40;;;;;;;3.75;91.16;98234.36;221603;1279;24361;-73
2023/01/14 22:17:00;;;;;;;10.90;4.30;;;;;;;3.76;91.00;98232.95;221383;1279;22538;-74
2023/01/14 22:22:05;;;;;;;11.20;4.20;;;;;;;3.77;91.01;98235.86;221330;1279;22627;-73
2023/01/14 22:27:08;;;;;;;9.70;4.10;;;;;;;3.74;90.95;98244.06;221624;1276;22598;-73
2023/01/14 22:32:10;;;;;;;10.10;4.10;;;;;;;3.71;90.74;98243.89;221350;1278;24756;-73
2023/01/14 22:37:12;;;;;;;12.60;4.20;;;;;;;3.68;90.59;98244.44;221330;1279;24245;-73
2023/01/14 22:42:15;;;;;;;13.90;5.30;;;;;;;3.66;90.60;98228.65;221420;1263;22547;-74
2023/01/14 22:47:21;;;;;;;11.00;4.70;;;;;;;3.62;90.49;98225.55;221579;1277;22543;-73
2023/01/14 22:52:27;;;;;;;11.00;4.10;;;;;;;3.57;90.54;98208.21;221318;1279;23119;-73
2023/01/14 22:57:29;;;;;;;11.40;4.10;;;;;;;3.54;90.49;98185.16;221200;1279;24398;-73
2023/01/14 23:02:31;;;;;;;8.60;3.00;;;;;;;3.56;90.58;98173.55;221288;1276;22546;-73
2023/01/14 23:07:36;;;;;;;9.10;2.90;;;;;;;3.59;90.64;98165.63;221673;1276;22591;-73
2023/01/14 23:12:44;;;;;;;8.40;3.30;;;;;;;3.64;90.49;98153.09;221302;1279;24432;-73
2023/01/14 23:17:46;;;;;;;6.70;2.90;;;;;;;3.69;90.29;98128.90;221253;1279;22540;-73
2023/01/14 23:28:10;;;;;;;7.30;3.00;;;;;;;3.75;90.13;98123.38;221595;1279;22578;-74
2023/01/14 23:33:13;;;;;;;7.00;2.50;;;;;;;3.80;89.85;98115.97;221438;1279;22639;-72
2023/01/14 23:38:15;;;;;;;6.90;2.70;;;;;;;3.84;89.79;98102.10;221570;1279;25517;-73
2023/01/14 23:43:18;;;;;;;5.60;2.10;;;;;;;3.90;89.59;98086.80;221322;1279;25301;-76
2023/01/14 23:48:20;;;;;;;7.40;2.30;;;;;;;3.99;89.48;98070.39;221170;1279;22543;-74
2023/01/14 23:53:22;;;;;;;5.40;1.50;;;;;;;4.14;89.14;98055.25;221454;1277;22667;-73
2023/01/14 23:58:25;;;;;;;2.60;1.30;;;;;;;4.33;89.26;98046.61;221515;1273;22554;-73
